Time;durP1;ratioP1;P1;durP2;ratioP2;P2;SDS_P1;SDS_P2;PMS_P1;PMS_P2;Temp;Humidity;BMP_temperature;BMP_pressure;BME280_temperature;BME280_humidity;BME280_pressure;Samples;Min_cycle;Max_cycle;Signal;HPM_P1;HPM_P2
2023/03/15 00:01:45;;;;;;;5.45;1.40;;;;;;;;;;7395025;19;19998;-68
2023/03/15 00:04:11;;;;;;;6.28;1.70;;;;;;;;;;7389315;19;20014;-68
2023/03/15 00:06:36;;;;;;;6.60;1.60;;;;;;;;;;7390656;19;20441;-68
2023/03/15 00:09:02;;;;;;;5.57;1.45;;;;;;;;;;7389810;19;20023;-67
2023/03/15 00:11:29;;;;;;;7.30;1.77;;;;;;;;;;7390622;19;20022;-68
2023/03/15 00:13:56;;;;;;;11.73;2.00;;;;;;;;;;7389834;19;20010;-67
2023/03/15 00:16:26;;;;;;;6.25;1.70;;;;;;;;;;7390277;19;20082;-66
2023/03/15 00:18:52;;;;;;;5.00;1.65;;;;;;;;;;7386334;19;20317;-67
2023/03/15 00:21:18;;;;;;;5.60;1.50;;;;;;;;;;7390672;19;19999;-67
2023/03/15 00:23:43;;;;;;;4.68;1.60;;;;;;;;;;7389639;19;20486;-66
2023/03/15 00:26:09;;;;;;;5.85;1.70;;;;;;;;;;7389686;19;19998;-67
2023/03/15 00:28:34;;;;;;;12.38;1.67;;;;;;;;;;7389445;19;20015;-65
2023/03/15 00:31:08;;;;;;;3.95;1.80;;;;;;;;;;7390137;19;20010;-67
2023/03/15 00:33:34;;;;;;;5.10;2.00;;;;;;;;;;7389027;19;20009;-67
2023/03/15 00:36:05;;;;;;;2.92;1.83;;;;;;;;;;7388806;19;20028;-67
2023/03/15 00:38:32;;;;;;;7.85;1.75;;;;;;;;;;7388137;19;20147;-66
2023/03/15 00:41:02;;;;;;;6.43;2.13;;;;;;;;;;7389267;19;20028;-67
2023/03/15 00:43:27;;;;;;;8.52;1.55;;;;;;;;;;7388663;19;20019;-66
2023/03/15 00:45:53;;;;;;;6.55;1.50;;;;;;;;;;7389481;19;20002;-66
2023/03/15 00:48:18;;;;;;;13.65;2.42;;;;;;;;;;7389251;19;20015;-66
2023/03/15 00:50:43;;;;;;;10.32;1.90;;;;;;;;;;7386902;19;20023;-66
2023/03/15 00:53:10;;;;;;;8.98;1.88;;;;;;;;;;7388798;19;20376;-66
2023/03/15 00:55:35;;;;;;;7.43;1.40;;;;;;;;;;7388880;19;20016;-66
2023/03/15 00:58:01;;;;;;;4.32;1.83;;;;;;;;;;7387864;19;20006;-66
2023/03/15 01:00:26;;;;;;;3.13;1.55;;;;;;;;;;7387296;19;20031;-66
2023/03/15 01:02:53;;;;;;;4.72;1.60;;;;;;;;;;7387820;19;20013;-66
2023/03/15 01:05:19;;;;;;;10.65;2.28;;;;;;;;;;7388031;19;20027;-67
2023/03/15 01:07:44;;;;;;;6.95;1.67;;;;;;;;;;7388104;19;20078;-67
2023/03/15 01:10:10;;;;;;;7.85;1.65;;;;;;;;;;7386779;19;20003;-67
2023/03/15 01:12:35;;;;;;;5.60;1.45;;;;;;;;;;7385844;19;20459;-67
2023/03/15 01:15:03;;;;;;;3.00;1.20;;;;;;;;;;7388065;19;20002;-67
2023/03/15 01:17:28;;;;;;;5.28;1.77;;;;;;;;;;7387047;19;20488;-67
2023/03/15 01:19:54;;;;;;;3.70;1.38;;;;;;;;;;7384610;19;19998;-67
2023/03/15 01:22:20;;;;;;;7.75;1.77;;;;;;;;;;7387983;19;20026;-67
2023/03/15 01:24:45;;;;;;;2.78;1.20;;;;;;;;;;7385948;19;20054;-67
2023/03/15 01:27:11;;;;;;;5.90;1.80;;;;;;;;;;7387801;19;20023;-67
2023/03/15 01:29:36;;;;;;;6.57;1.70;;;;;;;;;;7387139;19;20031;-67
2023/03/15 01:32:02;;;;;;;3.47;1.40;;;;;;;;;;7387692;19;19998;-67
2023/03/15 01:34:27;;;;;;;6.38;1.88;;;;;;;;;;7387112;19;19998;-68
2023/03/15 01:36:53;;;;;;;3.45;1.30;;;;;;;;;;7388874;19;20005;-67
2023/03/15 01:39:19;;;;;;;8.68;1.67;;;;;;;;;;7385220;19;19999;-67
2023/03/15 01:41:44;;;;;;;4.95;1.75;;;;;;;;;;7387797;19;20078;-68
2023/03/15 01:44:15;;;;;;;9.98;1.65;;;;;;;;;;7387087;19;20073;-67
2023/03/15 01:46:40;;;;;;;4.10;1.63;;;;;;;;;;7384068;19;20002;-67
2023/03/15 01:49:21;;;;;;;9.30;1.77;;;;;;;;;;7386666;19;20488;-67
2023/03/15 01:52:04;;;;;;;3.03;1.60;;;;;;;;;;7387399;19;20001;-67
2023/03/15 01:54:35;;;;;;;7.38;2.15;;;;;;;;;;7387075;19;20522;-67
2023/03/15 01:57:06;;;;;;;6.85;2.05;;;;;;;;;;7388235;19;19999;-67
2023/03/15 01:59:37;;;;;;;3.23;1.77;;;;;;;;;;7386446;19;20019;-67
2023/03/15 02:02:04;;;;;;;8.63;2.38;;;;;;;;;;7385995;19;20265;-67
2023/03/15 02:04:40;;;;;;;6.40;2.20;;;;;;;;;;7387879;19;20002;-67
2023/03/15 02:07:08;;;;;;;3.05;1.80;;;;;;;;;;7389033;19;19999;-67
2023/03/15 02:09:41;;;;;;;4.05;1.75;;;;;;;;;;7386006;19;20002;-69
2023/03/15 02:12:08;;;;;;;6.28;2.05;;;;;;;;;;7387187;19;20108;-67
2023/03/15 02:14:34;;;;;;;3.55;1.80;;;;;;;;;;7386649;19;20372;-67
2023/03/15 02:16:59;;;;;;;4.07;1.92;;;;;;;;;;7386515;19;20350;-68
2023/03/15 02:19:51;;;;;;;7.72;2.08;;;;;;;;;;7384835;19;20100;-68
2023/03/15 02:22:43;;;;;;;6.10;1.70;;;;;;;;;;7386722;19;20493;-67
2023/03/15 02:25:22;;;;;;;6.25;1.70;;;;;;;;;;7386204;19;20015;-67
2023/03/15 02:27:48;;;;;;;7.47;2.20;;;;;;;;;;7385926;19;19999;-67
2023/03/15 02:30:13;;;;;;;11.75;2.25;;;;;;;;;;7384402;19;20027;-67
2023/03/15 02:32:40;;;;;;;3.60;1.80;;;;;;;;;;7385700;19;20009;-67
2023/03/15 02:35:05;;;;;;;4.10;1.80;;;;;;;;;;7386565;19;20349;-67
2023/03/15 02:37:31;;;;;;;4.88;1.88;;;;;;;;;;7386123;19;20007;-68
2023/03/15 02:39:56;;;;;;;4.75;1.80;;;;;;;;;;7382543;19;19998;-67
2023/03/15 02:42:22;;;;;;;6.57;2.08;;;;;;;;;;7385522;19;20066;-68
2023/03/15 02:44:50;;;;;;;5.75;1.67;;;;;;;;;;7385528;19;20031;-67
2023/03/15 02:47:31;;;;;;;9.48;2.45;;;;;;;;;;7383860;19;20468;-67
2023/03/15 02:49:56;;;;;;;4.95;1.83;;;;;;;;;;7384361;19;20377;-68
2023/03/15 02:52:22;;;;;;;3.88;1.75;;;;;;;;;;7385238;19;20095;-68
2023/03/15 02:54:48;;;;;;;12.02;2.60;;;;;;;;;;7384570;19;19999;-67
2023/03/15 02:57:15;;;;;;;6.10;2.00;;;;;;;;;;7385738;19;20111;-67
2023/03/15 02:59:43;;;;;;;3.05;1.77;;;;;;;;;;7389551;19;20017;-68
2023/03/15 03:02:12;;;;;;;6.80;1.90;;;;;;;;;;7391250;19;20129;-68
2023/03/15 03:04:38;;;;;;;4.45;1.98;;;;;;;;;;7390545;19;20349;-67
2023/03/15 03:07:04;;;;;;;10.70;2.13;;;;;;;;;;7392345;19;19998;-67
2023/03/15 03:09:29;;;;;;;8.15;2.65;;;;;;;;;;7393584;19;20006;-67
2023/03/15 03:11:55;;;;;;;6.30;1.95;;;;;;;;;;7392236;19;20013;-67
2023/03/15 03:14:22;;;;;;;6.13;1.92;;;;;;;;;;7392307;19;19998;-68
2023/03/15 03:16:48;;;;;;;6.50;2.03;;;;;;;;;;7392243;19;20010;-67
2023/03/15 03:19:13;;;;;;;7.30;1.90;;;;;;;;;;7389717;19;20037;-67
2023/03/15 03:21:42;;;;;;;6.28;1.92;;;;;;;;;;7392180;19;20006;-67
2023/03/15 03:24:14;;;;;;;4.63;2.05;;;;;;;;;;7388860;19;20567;-67
2023/03/15 03:26:40;;;;;;;7.78;2.55;;;;;;;;;;7390043;19;20545;-67
2023/03/15 03:29:05;;;;;;;5.50;1.75;;;;;;;;;;7391059;19;20003;-67
2023/03/15 03:31:32;;;;;;;5.88;1.75;;;;;;;;;;7392054;19;19999;-67
2023/03/15 03:33:58;;;;;;;2.90;1.65;;;;;;;;;;7391218;19;20002;-68
2023/03/15 03:36:23;;;;;;;6.30;1.83;;;;;;;;;;7389949;19;20042;-67
2023/03/15 03:38:50;;;;;;;5.57;1.70;;;;;;;;;;7389367;19;20006;-68
2023/03/15 03:41:15;;;;;;;7.65;1.85;;;;;;;;;;7394872;19;20023;-67
2023/03/15 03:43:41;;;;;;;9.98;2.13;;;;;;;;;;7390821;19;20006;-67
2023/03/15 03:46:06;;;;;;;7.05;2.13;;;;;;;;;;7390175;19;20390;-68
2023/03/15 03:48:32;;;;;;;9.38;1.85;;;;;;;;;;7390944;19;20065;-67
2023/03/15 03:50:58;;;;;;;6.72;2.30;;;;;;;;;;7391341;19;20037;-67
2023/03/15 03:53:23;;;;;;;7.25;2.40;;;;;;;;;;7392335;19;19995;-68
2023/03/15 03:55:48;;;;;;;10.82;2.30;;;;;;;;;;7391463;19;19999;-68
2023/03/15 03:58:14;;;;;;;6.38;2.00;;;;;;;;;;7390093;19;20006;-68
2023/03/15 04:00:40;;;;;;;6.35;2.33;;;;;;;;;;7388356;19;20002;-68
2023/03/15 04:03:06;;;;;;;5.05;1.90;;;;;;;;;;7390405;19;20013;-68
2023/03/15 04:05:34;;;;;;;7.93;1.77;;;;;;;;;;7390808;19;20401;-68
2023/03/15 04:08:00;;;;;;;4.03;1.75;;;;;;;;;;7389246;19;20010;-68
2023/03/15 04:10:28;;;;;;;6.03;1.98;;;;;;;;;;7385632;19;20002;-68
2023/03/15 04:12:54;;;;;;;7.40;2.30;;;;;;;;;;7389885;19;20010;-68
2023/03/15 04:15:23;;;;;;;9.25;2.00;;;;;;;;;;7388666;19;20014;-68
2023/03/15 04:17:54;;;;;;;9.75;2.10;;;;;;;;;;7393498;19;20482;-67
2023/03/15 04:20:24;;;;;;;13.65;2.00;;;;;;;;;;7388600;19;20087;-67
2023/03/15 04:22:50;;;;;;;7.13;2.07;;;;;;;;;;7389789;19;20003;-67
2023/03/15 04:25:17;;;;;;;4.90;2.20;;;;;;;;;;7390872;19;20118;-68
2023/03/15 04:27:42;;;;;;;10.35;2.75;;;;;;;;;;7391197;19;20036;-67
2023/03/15 04:30:09;;;;;;;8.00;1.92;;;;;;;;;;7388800;19;20034;-67
2023/03/15 04:32:34;;;;;;;5.13;1.67;;;;;;;;;;7389306;19;20010;-68
2023/03/15 04:35:01;;;;;;;11.05;2.08;;;;;;;;;;7390032;19;20357;-68
2023/03/15 04:37:27;;;;;;;5.45;1.90;;;;;;;;;;7389428;19;19998;-67
2023/03/15 04:39:52;;;;;;;10.07;1.63;;;;;;;;;;7388029;19;20002;-68
2023/03/15 04:42:18;;;;;;;5.75;2.22;;;;;;;;;;7389608;19;20100;-69
2023/03/15 04:44:43;;;;;;;7.65;2.03;;;;;;;;;;7389075;19;20001;-68
2023/03/15 04:47:08;;;;;;;5.50;2.03;;;;;;;;;;7389525;19;20011;-67
2023/03/15 04:49:34;;;;;;;6.20;1.65;;;;;;;;;;7389207;19;20050;-67
2023/03/15 04:51:59;;;;;;;6.75;1.88;;;;;;;;;;7389476;19;19999;-67
2023/03/15 04:54:25;;;;;;;9.35;2.25;;;;;;;;;;7388708;19;19999;-67
2023/03/15 04:56:50;;;;;;;8.93;2.10;;;;;;;;;;7389093;19;20074;-67
2023/03/15 04:59:16;;;;;;;6.80;2.22;;;;;;;;;;7387044;19;20009;-67
2023/03/15 05:01:41;;;;;;;13.95;3.13;;;;;;;;;;7387870;19;20006;-68
2023/03/15 05:04:06;;;;;;;6.63;2.60;;;;;;;;;;7392189;19;20002;-67
2023/03/15 05:06:32;;;;;;;10.07;2.28;;;;;;;;;;7389679;19;20092;-68
2023/03/15 05:08:57;;;;;;;11.10;2.13;;;;;;;;;;7386375;19;20006;-68
2023/03/15 05:11:23;;;;;;;5.80;2.13;;;;;;;;;;7387866;19;19994;-68
2023/03/15 05:13:48;;;;;;;4.32;2.00;;;;;;;;;;7384684;19;20299;-68
2023/03/15 05:16:14;;;;;;;5.90;1.83;;;;;;;;;;7383925;19;20001;-68
2023/03/15 05:18:39;;;;;;;6.15;2.05;;;;;;;;;;7381809;19;20002;-68
2023/03/15 05:21:05;;;;;;;3.72;1.88;;;;;;;;;;7384117;19;20035;-67
2023/03/15 05:23:32;;;;;;;5.70;1.98;;;;;;;;;;7387783;19;20093;-68
2023/03/15 05:25:58;;;;;;;8.77;2.10;;;;;;;;;;7387190;19;20014;-67
2023/03/15 05:28:24;;;;;;;2.75;1.63;;;;;;;;;;7388678;19;19991;-68
2023/03/15 05:30:51;;;;;;;15.63;3.08;;;;;;;;;;7388992;19;20032;-69
2023/03/15 05:33:17;;;;;;;6.60;2.00;;;;;;;;;;7388318;19;19994;-66
2023/03/15 05:35:45;;;;;;;7.75;2.20;;;;;;;;;;7389102;19;20012;-67
2023/03/15 05:38:15;;;;;;;23.98;11.57;;;;;;;;;;7387808;19;20453;-69
2023/03/15 05:40:44;;;;;;;15.82;4.70;;;;;;;;;;7390132;19;19995;-68
2023/03/15 05:43:09;;;;;;;11.02;4.00;;;;;;;;;;7386325;19;20006;-67
2023/03/15 05:45:35;;;;;;;10.48;2.60;;;;;;;;;;7388229;19;19998;-69
2023/03/15 05:48:01;;;;;;;4.50;2.13;;;;;;;;;;7388676;19;19994;-75
2023/03/15 05:50:27;;;;;;;8.10;2.03;;;;;;;;;;7387072;19;20312;-76
2023/03/15 05:52:53;;;;;;;7.38;2.30;;;;;;;;;;7390590;19;20002;-68
2023/03/15 05:55:18;;;;;;;6.13;2.10;;;;;;;;;;7388345;19;20015;-68
2023/03/15 05:57:43;;;;;;;12.18;5.63;;;;;;;;;;7387461;19;20767;-67
2023/03/15 06:00:09;;;;;;;12.88;4.18;;;;;;;;;;7379357;19;20029;-68
2023/03/15 06:02:35;;;;;;;7.68;2.67;;;;;;;;;;7390173;19;20006;-69
2023/03/15 06:05:00;;;;;;;7.82;2.70;;;;;;;;;;7391369;19;20368;-69
2023/03/15 06:07:26;;;;;;;8.18;1.98;;;;;;;;;;7389805;19;20335;-67
2023/03/15 06:09:51;;;;;;;6.53;2.22;;;;;;;;;;7362354;19;20003;-67
2023/03/15 06:12:17;;;;;;;10.68;2.03;;;;;;;;;;7387804;19;19994;-69
2023/03/15 06:14:42;;;;;;;7.18;1.90;;;;;;;;;;7388375;19;20010;-67
2023/03/15 06:17:07;;;;;;;4.57;2.00;;;;;;;;;;7390156;19;20361;-69
2023/03/15 06:19:33;;;;;;;5.95;2.50;;;;;;;;;;7386135;19;20119;-68
2023/03/15 06:21:58;;;;;;;9.40;2.08;;;;;;;;;;7390710;19;20035;-68
2023/03/15 06:24:24;;;;;;;11.32;2.10;;;;;;;;;;7388379;19;19999;-69
2023/03/15 06:26:49;;;;;;;7.30;2.15;;;;;;;;;;7387538;19;19991;-69
2023/03/15 06:29:16;;;;;;;6.38;2.13;;;;;;;;;;7385398;19;19999;-68
2023/03/15 06:31:41;;;;;;;6.88;2.53;;;;;;;;;;7376828;19;20019;-68
2023/03/15 06:34:07;;;;;;;12.07;2.55;;;;;;;;;;7385311;19;19995;-68
2023/03/15 06:36:33;;;;;;;7.40;2.80;;;;;;;;;;7386693;19;20080;-68
2023/03/15 06:38:58;;;;;;;10.50;2.78;;;;;;;;;;7384620;19;20007;-68
2023/03/15 06:41:24;;;;;;;7.45;2.55;;;;;;;;;;7386357;19;20381;-68
2023/03/15 06:43:49;;;;;;;8.20;3.22;;;;;;;;;;7387363;19;20301;-69
2023/03/15 06:46:15;;;;;;;6.68;2.60;;;;;;;;;;7387823;19;20015;-69
2023/03/15 06:48:41;;;;;;;8.05;2.60;;;;;;;;;;7389427;19;20052;-69
2023/03/15 06:51:06;;;;;;;9.95;3.08;;;;;;;;;;7384794;19;20005;-69
2023/03/15 06:53:31;;;;;;;6.53;2.97;;;;;;;;;;7387985;19;20058;-69
2023/03/15 06:55:57;;;;;;;9.25;3.15;;;;;;;;;;7388146;19;20066;-69
2023/03/15 06:58:22;;;;;;;5.40;2.72;;;;;;;;;;7388494;19;19999;-70
2023/03/15 07:00:48;;;;;;;6.90;2.40;;;;;;;;;;7389636;19;20074;-69
2023/03/15 07:03:13;;;;;;;11.15;3.17;;;;;;;;;;7387577;19;20001;-68
2023/03/15 07:05:39;;;;;;;14.88;3.97;;;;;;;;;;7386173;19;20115;-68
2023/03/15 07:08:05;;;;;;;5.82;3.10;;;;;;;;;;7384759;19;19999;-68
2023/03/15 07:10:30;;;;;;;7.57;3.10;;;;;;;;;;7386877;19;19997;-68
2023/03/15 07:12:55;;;;;;;8.57;3.58;;;;;;;;;;7387381;19;19991;-68
2023/03/15 07:15:20;;;;;;;9.27;3.85;;;;;;;;;;7384396;19;19998;-68
2023/03/15 07:17:46;;;;;;;7.15;2.53;;;;;;;;;;7383789;19;20009;-69
2023/03/15 07:20:11;;;;;;;10.90;3.28;;;;;;;;;;7385082;19;20062;-68
2023/03/15 07:22:37;;;;;;;12.73;2.97;;;;;;;;;;7385574;19;20058;-68
2023/03/15 07:25:05;;;;;;;13.07;2.90;;;;;;;;;;7385138;19;20025;-69
2023/03/15 07:27:30;;;;;;;9.57;2.90;;;;;;;;;;7386344;19;19998;-68
2023/03/15 07:29:55;;;;;;;5.60;2.10;;;;;;;;;;7386840;19;20279;-68
2023/03/15 07:32:21;;;;;;;7.90;2.65;;;;;;;;;;7388254;19;20421;-68
2023/03/15 07:34:46;;;;;;;8.27;2.55;;;;;;;;;;7388905;19;20074;-68
2023/03/15 07:37:11;;;;;;;6.20;2.63;;;;;;;;;;7384961;19;20018;-67
2023/03/15 07:39:37;;;;;;;7.43;2.40;;;;;;;;;;7384071;19;20107;-67
2023/03/15 07:42:03;;;;;;;8.13;2.50;;;;;;;;;;7386397;19;20002;-67
2023/03/15 07:44:28;;;;;;;6.28;2.17;;;;;;;;;;7389046;19;19994;-67
2023/03/15 07:46:54;;;;;;;7.85;2.00;;;;;;;;;;7394902;19;20485;-68
2023/03/15 07:49:20;;;;;;;9.90;2.72;;;;;;;;;;7391502;19;20007;-68
2023/03/15 07:51:45;;;;;;;6.80;2.28;;;;;;;;;;7393316;19;20009;-67
2023/03/15 07:54:11;;;;;;;8.50;2.25;;;;;;;;;;7390844;19;20487;-68
2023/03/15 07:56:36;;;;;;;5.13;2.20;;;;;;;;;;7394781;19;20381;-68
2023/03/15 07:59:01;;;;;;;6.03;2.58;;;;;;;;;;7391030;19;20005;-67
2023/03/15 08:01:27;;;;;;;5.82;2.17;;;;;;;;;;7392858;19;20400;-67
2023/03/15 08:03:52;;;;;;;7.55;2.03;;;;;;;;;;7392379;19;20003;-67
2023/03/15 08:06:17;;;;;;;4.72;2.20;;;;;;;;;;7394743;19;20005;-67
2023/03/15 08:08:43;;;;;;;7.50;2.03;;;;;;;;;;7393889;19;20003;-67
2023/03/15 08:11:08;;;;;;;6.28;2.42;;;;;;;;;;7390784;19;19999;-68
2023/03/15 08:13:34;;;;;;;6.15;2.60;;;;;;;;;;7389521;19;20008;-68
2023/03/15 08:16:00;;;;;;;6.55;2.20;;;;;;;;;;7393053;19;20369;-68
2023/03/15 08:18:27;;;;;;;7.60;2.30;;;;;;;;;;7392003;19;19992;-68
2023/03/15 08:20:53;;;;;;;7.18;2.58;;;;;;;;;;7395264;19;19998;-68
2023/03/15 08:23:19;;;;;;;8.57;2.50;;;;;;;;;;7390560;19;20015;-68
2023/03/15 08:25:44;;;;;;;6.28;2.42;;;;;;;;;;7393432;19;20222;-68
2023/03/15 08:28:10;;;;;;;7.07;2.13;;;;;;;;;;7390326;19;20003;-66
2023/03/15 08:30:36;;;;;;;8.68;2.65;;;;;;;;;;7390995;19;19998;-66
2023/03/15 08:33:02;;;;;;;7.78;2.50;;;;;;;;;;7388761;19;20373;-66
2023/03/15 08:35:27;;;;;;;7.22;2.58;;;;;;;;;;7393103;19;20002;-67
2023/03/15 08:37:53;;;;;;;8.75;2.60;;;;;;;;;;7393270;19;20433;-66
2023/03/15 08:40:23;;;;;;;8.88;2.65;;;;;;;;;;7388952;19;19999;-67
2023/03/15 08:42:49;;;;;;;8.50;2.63;;;;;;;;;;7392389;19;20024;-67
2023/03/15 08:45:15;;;;;;;9.85;2.80;;;;;;;;;;7389395;19;20002;-67
2023/03/15 08:47:41;;;;;;;5.63;2.55;;;;;;;;;;7392383;19;20079;-68
2023/03/15 08:50:10;;;;;;;8.95;2.80;;;;;;;;;;7390308;19;20010;-66
2023/03/15 08:52:35;;;;;;;4.53;2.85;;;;;;;;;;7392358;19;20273;-66
2023/03/15 08:55:03;;;;;;;7.75;2.63;;;;;;;;;;7390090;19;19994;-67
2023/03/15 08:57:31;;;;;;;7.90;2.67;;;;;;;;;;7390503;19;20454;-67
2023/03/15 08:59:57;;;;;;;5.22;2.75;;;;;;;;;;7388906;19;20026;-67
2023/03/15 09:02:23;;;;;;;11.68;3.10;;;;;;;;;;7392233;19;20070;-67
2023/03/15 09:04:48;;;;;;;8.00;3.17;;;;;;;;;;7392694;19;19998;-67
2023/03/15 09:07:14;;;;;;;6.35;2.88;;;;;;;;;;7391815;19;20006;-66
2023/03/15 09:09:40;;;;;;;7.78;2.63;;;;;;;;;;7388548;19;20013;-66
2023/03/15 09:12:05;;;;;;;6.28;2.63;;;;;;;;;;7391015;19;20468;-66
2023/03/15 09:14:31;;;;;;;6.88;2.55;;;;;;;;;;7392996;19;20002;-66
2023/03/15 09:16:56;;;;;;;7.85;3.10;;;;;;;;;;7393873;19;19995;-67
2023/03/15 09:19:21;;;;;;;8.30;2.92;;;;;;;;;;7389220;19;19999;-67
2023/03/15 09:21:47;;;;;;;6.30;3.08;;;;;;;;;;7389463;19;20002;-67
2023/03/15 09:24:13;;;;;;;6.00;2.65;;;;;;;;;;7391553;19;20003;-67
2023/03/15 09:26:38;;;;;;;7.78;3.05;;;;;;;;;;7392905;19;19998;-67
2023/03/15 09:29:03;;;;;;;7.82;2.85;;;;;;;;;;7389181;19;20058;-67
2023/03/15 09:31:30;;;;;;;7.53;2.70;;;;;;;;;;7390246;19;20037;-67
2023/03/15 09:33:56;;;;;;;9.40;2.75;;;;;;;;;;7389628;19;20034;-67
2023/03/15 09:36:21;;;;;;;6.75;2.55;;;;;;;;;;7390998;19;20486;-69
2023/03/15 09:38:46;;;;;;;5.80;2.65;;;;;;;;;;7388520;19;20006;-68
2023/03/15 09:41:37;;;;;;;4.90;2.58;;;;;;;;;;7392098;19;20012;-67
2023/03/15 09:44:27;;;;;;;6.88;2.78;;;;;;;;;;7389416;19;20007;-67
2023/03/15 09:47:24;;;;;;;7.15;2.83;;;;;;;;;;7389259;19;20306;-67
2023/03/15 09:50:01;;;;;;;5.90;2.40;;;;;;;;;;7389614;19;20003;-68
2023/03/15 09:52:38;;;;;;;4.50;2.30;;;;;;;;;;7390133;19;20002;-68
2023/03/15 09:55:20;;;;;;;4.03;1.90;;;;;;;;;;7386309;19;20005;-68
2023/03/15 09:57:59;;;;;;;4.53;1.80;;;;;;;;;;7387831;19;20006;-67
2023/03/15 10:00:50;;;;;;;3.95;1.63;;;;;;;;;;7388826;19;20355;-67
2023/03/15 10:03:45;;;;;;;4.25;1.92;;;;;;;;;;7387871;19;20073;-67
2023/03/15 10:06:33;;;;;;;3.45;1.75;;;;;;;;;;7389784;19;20003;-68
2023/03/15 10:09:00;;;;;;;4.00;1.80;;;;;;;;;;7384039;19;20066;-67
2023/03/15 10:11:28;;;;;;;4.68;1.85;;;;;;;;;;7388191;19;20001;-67
2023/03/15 10:14:20;;;;;;;5.32;2.08;;;;;;;;;;7388618;19;20035;-67
2023/03/15 10:16:47;;;;;;;4.38;1.95;;;;;;;;;;7390771;19;20008;-67
2023/03/15 10:19:32;;;;;;;3.75;1.83;;;;;;;;;;7386124;19;20009;-67
2023/03/15 10:22:09;;;;;;;5.75;2.20;;;;;;;;;;7389244;19;19999;-67
2023/03/15 10:24:44;;;;;;;6.03;2.05;;;;;;;;;;7387672;19;20002;-67
2023/03/15 10:27:19;;;;;;;4.43;1.90;;;;;;;;;;7387605;19;20003;-67
2023/03/15 10:29:47;;;;;;;3.22;1.95;;;;;;;;;;7386102;19;20018;-67
2023/03/15 10:32:16;;;;;;;4.47;2.30;;;;;;;;;;7389034;19;20456;-68
2023/03/15 10:34:50;;;;;;;5.45;2.00;;;;;;;;;;7389614;19;20003;-67
2023/03/15 10:37:16;;;;;;;3.20;1.88;;;;;;;;;;7385937;19;20069;-68
2023/03/15 10:39:46;;;;;;;2.25;1.65;;;;;;;;;;7385536;19;20007;-68
2023/03/15 10:42:29;;;;;;;2.55;1.60;;;;;;;;;;7389281;19;20402;-68
2023/03/15 10:44:56;;;;;;;4.55;1.80;;;;;;;;;;7389050;19;20114;-67
2023/03/15 10:47:22;;;;;;;7.10;1.60;;;;;;;;;;7386986;19;20002;-67
2023/03/15 10:49:48;;;;;;;2.92;1.65;;;;;;;;;;7384340;19;20016;-66
2023/03/15 10:52:34;;;;;;;2.55;1.60;;;;;;;;;;7388383;19;19999;-66
2023/03/15 10:55:27;;;;;;;2.83;1.40;;;;;;;;;;7388243;19;20006;-67
2023/03/15 10:57:56;;;;;;;3.58;1.80;;;;;;;;;;7387300;19;19998;-67
2023/03/15 11:00:29;;;;;;;2.65;1.35;;;;;;;;;;7386932;19;20002;-67
2023/03/15 11:03:21;;;;;;;2.38;1.50;;;;;;;;;;7389464;19;20125;-67
2023/03/15 11:05:53;;;;;;;2.95;1.73;;;;;;;;;;7388447;19;19998;-67
2023/03/15 11:08:21;;;;;;;3.33;1.85;;;;;;;;;;7387384;19;20017;-67
2023/03/15 11:10:56;;;;;;;3.35;1.90;;;;;;;;;;7389553;19;20465;-66
2023/03/15 11:13:29;;;;;;;3.42;2.10;;;;;;;;;;7386642;19;20009;-67
2023/03/15 11:16:04;;;;;;;3.25;1.60;;;;;;;;;;7389147;19;20026;-69
2023/03/15 11:18:30;;;;;;;3.88;1.90;;;;;;;;;;7389102;19;20003;-69
2023/03/15 11:20:56;;;;;;;3.05;1.80;;;;;;;;;;7395113;19;20070;-67
2023/03/15 11:23:33;;;;;;;4.00;2.05;;;;;;;;;;7396547;19;20031;-68
2023/03/15 11:26:00;;;;;;;2.28;1.42;;;;;;;;;;7394234;19;20429;-68
2023/03/15 11:28:28;;;;;;;4.20;2.00;;;;;;;;;;7395603;19;20030;-68
2023/03/15 11:30:58;;;;;;;4.00;1.88;;;;;;;;;;7392034;19;20007;-67
2023/03/15 11:33:50;;;;;;;4.07;2.10;;;;;;;;;;7388968;19;20026;-68
2023/03/15 11:36:19;;;;;;;7.90;2.42;;;;;;;;;;7391371;19;20007;-68
2023/03/15 11:38:45;;;;;;;4.07;2.25;;;;;;;;;;7390469;19;20090;-68
2023/03/15 11:41:31;;;;;;;3.53;2.30;;;;;;;;;;7387119;19;20066;-67
2023/03/15 11:44:31;;;;;;;3.83;2.25;;;;;;;;;;7387771;19;20031;-67
2023/03/15 11:47:27;;;;;;;3.95;2.20;;;;;;;;;;7396663;19;20023;-67
2023/03/15 11:49:55;;;;;;;6.43;2.17;;;;;;;;;;7392920;19;20003;-67
2023/03/15 11:52:23;;;;;;;4.07;2.30;;;;;;;;;;7394134;19;20010;-68
2023/03/15 11:54:49;;;;;;;4.38;2.35;;;;;;;;;;7395375;19;20031;-68
2023/03/15 11:57:36;;;;;;;3.92;2.10;;;;;;;;;;7392603;19;20054;-68
2023/03/15 12:00:21;;;;;;;9.27;2.58;;;;;;;;;;7390060;19;20066;-67
2023/03/15 12:02:50;;;;;;;2.78;1.92;;;;;;;;;;7394798;19;19999;-68
2023/03/15 12:05:40;;;;;;;2.58;1.70;;;;;;;;;;7393433;19;20378;-68
2023/03/15 12:08:24;;;;;;;2.58;1.88;;;;;;;;;;7394051;19;20026;-67
2023/03/15 12:10:50;;;;;;;2.70;1.77;;;;;;;;;;7395434;19;20016;-68
2023/03/15 12:13:22;;;;;;;2.95;1.42;;;;;;;;;;7391463;19;20018;-67
2023/03/15 12:15:49;;;;;;;2.70;1.65;;;;;;;;;;7393285;19;20003;-68
2023/03/15 12:18:20;;;;;;;3.92;1.77;;;;;;;;;;7393343;19;20040;-67
2023/03/15 12:20:55;;;;;;;2.95;1.80;;;;;;;;;;7395006;19;20002;-67
2023/03/15 12:23:42;;;;;;;2.72;1.60;;;;;;;;;;7391352;19;20016;-68
2023/03/15 12:26:39;;;;;;;1.48;1.33;;;;;;;;;;7393746;19;20006;-68
2023/03/15 12:29:10;;;;;;;2.15;1.50;;;;;;;;;;7390174;19;20338;-68
2023/03/15 12:31:51;;;;;;;2.97;1.40;;;;;;;;;;7393211;19;20013;-68
2023/03/15 12:34:44;;;;;;;2.25;1.50;;;;;;;;;;7393142;19;20005;-68
2023/03/15 12:37:17;;;;;;;2.83;1.50;;;;;;;;;;7388779;19;20009;-68
2023/03/15 12:39:44;;;;;;;1.95;1.50;;;;;;;;;;7389449;19;20002;-68
2023/03/15 12:42:56;;;;;;;3.90;1.75;;;;;;;;;;7393065;19;20066;-68
2023/03/15 12:45:38;;;;;;;;;;;;;;;;;;7391529;19;20005;-68
2023/03/15 12:48:05;;;;;;;3.53;1.80;;;;;;;;;;7393112;19;19922;-68
2023/03/15 12:50:42;;;;;;;3.67;2.20;;;;;;;;;;7391155;19;20041;-68
2023/03/15 12:53:28;;;;;;;3.63;2.13;;;;;;;;;;7388517;19;20005;-68
2023/03/15 12:55:55;;;;;;;4.25;2.15;;;;;;;;;;7390087;19;20396;-68
2023/03/15 12:58:27;;;;;;;5.55;2.20;;;;;;;;;;7392160;19;20325;-67
2023/03/15 13:00:53;;;;;;;3.58;1.98;;;;;;;;;;7392036;19;20070;-67
2023/03/15 13:03:25;;;;;;;3.10;2.28;;;;;;;;;;7390218;19;20003;-67
2023/03/15 13:06:30;;;;;;;6.03;2.33;;;;;;;;;;7391114;19;20011;-67
2023/03/15 13:09:10;;;;;;;5.55;2.10;;;;;;;;;;7393015;19;19998;-67
2023/03/15 13:11:45;;;;;;;10.02;2.35;;;;;;;;;;7389754;19;19995;-67
2023/03/15 13:14:35;;;;;;;7.72;2.65;;;;;;;;;;7391626;19;19999;-67
2023/03/15 13:17:15;;;;;;;8.68;2.22;;;;;;;;;;7388809;19;20336;-67
2023/03/15 13:19:44;;;;;;;7.80;2.38;;;;;;;;;;7389450;19;20363;-67
2023/03/15 13:22:35;;;;;;;5.15;2.10;;;;;;;;;;7391983;19;20465;-67
2023/03/15 13:25:14;;;;;;;4.10;2.10;;;;;;;;;;7389635;19;19993;-67
2023/03/15 13:27:58;;;;;;;5.63;2.20;;;;;;;;;;7392108;19;20006;-67
2023/03/15 13:30:47;;;;;;;3.15;2.08;;;;;;;;;;7390157;19;20006;-67
2023/03/15 13:33:27;;;;;;;4.00;2.17;;;;;;;;;;7389570;19;19994;-67
2023/03/15 13:35:54;;;;;;;2.72;1.75;;;;;;;;;;7389480;19;20010;-67
2023/03/15 13:38:24;;;;;;;4.18;2.10;;;;;;;;;;7390091;19;20240;-67
2023/03/15 13:40:49;;;;;;;4.57;2.10;;;;;;;;;;7387872;19;20089;-71
2023/03/15 13:43:15;;;;;;;6.25;2.10;;;;;;;;;;7386111;19;20006;-72
2023/03/15 13:45:42;;;;;;;3.45;1.85;;;;;;;;;;7391064;19;20007;-71
2023/03/15 13:48:07;;;;;;;6.43;1.90;;;;;;;;;;7392082;19;20019;-71
2023/03/15 13:50:33;;;;;;;4.63;1.85;;;;;;;;;;7389125;19;20014;-70
2023/03/15 13:52:58;;;;;;;6.07;2.10;;;;;;;;;;7388925;19;20002;-70
2023/03/15 13:55:30;;;;;;;4.10;2.30;;;;;;;;;;7390272;19;19995;-71
2023/03/15 13:57:59;;;;;;;5.40;2.60;;;;;;;;;;7390182;19;20006;-70
2023/03/15 14:00:25;;;;;;;3.90;1.92;;;;;;;;;;7388622;19;20003;-71
2023/03/15 14:02:55;;;;;;;8.32;2.20;;;;;;;;;;7389042;19;20014;-71
2023/03/15 14:05:27;;;;;;;5.75;2.00;;;;;;;;;;7390319;19;20006;-71
2023/03/15 14:08:16;;;;;;;4.07;1.73;;;;;;;;;;7388861;19;20030;-70
2023/03/15 14:10:41;;;;;;;3.25;1.67;;;;;;;;;;7390354;19;20071;-70
2023/03/15 14:13:23;;;;;;;4.60;2.05;;;;;;;;;;7390894;19;20443;-69
2023/03/15 14:15:49;;;;;;;3.53;1.95;;;;;;;;;;7391975;19;20006;-69
2023/03/15 14:18:20;;;;;;;3.85;2.08;;;;;;;;;;7368106;19;20003;-71
2023/03/15 14:21:11;;;;;;;4.43;2.17;;;;;;;;;;7388426;19;20015;-71
2023/03/15 14:23:42;;;;;;;4.47;2.10;;;;;;;;;;7390664;19;20006;-70
2023/03/15 14:26:25;;;;;;;6.78;2.10;;;;;;;;;;7391241;19;19995;-71
2023/03/15 14:28:55;;;;;;;5.30;2.50;;;;;;;;;;7391073;19;20005;-72
2023/03/15 14:31:24;;;;;;;4.35;2.05;;;;;;;;;;7391297;19;19998;-71
2023/03/15 14:33:55;;;;;;;4.75;2.35;;;;;;;;;;7390366;19;20002;-71
2023/03/15 14:36:38;;;;;;;4.15;1.98;;;;;;;;;;7391101;19;20646;-70
2023/03/15 14:39:17;;;;;;;2.47;1.80;;;;;;;;;;7388733;19;20037;-71
2023/03/15 14:41:43;;;;;;;3.28;1.95;;;;;;;;;;7390328;19;20106;-70
2023/03/15 14:44:08;;;;;;;2.72;1.67;;;;;;;;;;7390127;19;20877;-71
2023/03/15 14:46:33;;;;;;;3.58;1.52;;;;;;;;;;7390096;19;20460;-71
2023/03/15 14:48:59;;;;;;;1.77;1.40;;;;;;;;;;7389500;19;20413;-71
2023/03/15 14:51:27;;;;;;;3.60;1.60;;;;;;;;;;7388475;19;20010;-71
2023/03/15 14:53:55;;;;;;;3.75;1.33;;;;;;;;;;7389200;19;20035;-70
2023/03/15 14:56:21;;;;;;;3.47;1.60;;;;;;;;;;7398278;19;19999;-70
2023/03/15 14:58:48;;;;;;;3.90;1.60;;;;;;;;;;7373243;19;20005;-71